createdAt,value
2023-04-13T00:00:48.669Z,100.00
2023-04-13T00:03:17.613Z,100.00
2023-04-13T00:05:46.634Z,100.00
2023-04-13T00:08:14.316Z,100.00
2023-04-13T00:10:41.748Z,100.00
2023-04-13T00:13:10.749Z,100.00
2023-04-13T00:15:41.981Z,100.00
2023-04-13T00:18:10.680Z,100.00
2023-04-13T00:20:39.085Z,100.00
2023-04-13T00:23:06.004Z,100.00
2023-04-13T00:25:32.737Z,100.00
2023-04-13T00:28:03.272Z,100.00
2023-04-13T00:30:30.309Z,100.00
2023-04-13T00:32:57.169Z,100.00
2023-04-13T00:35:25.051Z,100.00
2023-04-13T00:37:53.400Z,100.00
2023-04-13T00:40:20.661Z,100.00
2023-04-13T00:42:49.804Z,100.00
2023-04-13T00:45:20.488Z,100.00
2023-04-13T00:47:50.551Z,100.00
2023-04-13T00:50:20.903Z,100.00
2023-04-13T00:52:48.680Z,100.00
2023-04-13T00:55:20.896Z,100.00
2023-04-13T00:57:50.049Z,100.00
2023-04-13T01:00:17.831Z,100.00
2023-04-13T01:02:44.989Z,100.00
2023-04-13T01:05:15.399Z,100.00
2023-04-13T01:08:09.331Z,100.00
2023-04-13T01:10:54.280Z,99.26
2023-04-13T01:13:26.352Z,100.00
2023-04-13T01:16:12.514Z,99.87
2023-04-13T01:18:41.734Z,99.08
2023-04-13T01:21:13.004Z,100.00
2023-04-13T01:24:06.285Z,96.62
2023-04-13T01:26:57.542Z,97.99
2023-04-13T01:29:26.744Z,98.37
2023-04-13T01:31:54.299Z,98.09
2023-04-13T01:34:23.294Z,97.83
2023-04-13T01:36:50.990Z,98.62
2023-04-13T01:39:21.597Z,96.93
2023-04-13T01:41:48.380Z,97.76
2023-04-13T01:44:15.286Z,97.21
2023-04-13T01:46:47.617Z,97.07
2023-04-13T01:49:19.525Z,98.57
2023-04-13T01:51:48.240Z,97.01
2023-04-13T01:54:22.120Z,97.39
2023-04-13T01:56:50.315Z,99.73
2023-04-13T01:59:17.473Z,99.47
2023-04-13T02:01:44.732Z,99.16
2023-04-13T02:04:11.835Z,99.39
2023-04-13T02:06:39.348Z,100.00
2023-04-13T02:09:09.951Z,100.00
2023-04-13T02:11:37.985Z,100.00
2023-04-13T02:14:04.957Z,100.00
2023-04-13T02:16:32.122Z,100.00
2023-04-13T02:18:59.031Z,100.00
2023-04-13T02:21:25.916Z,100.00
2023-04-13T02:23:52.863Z,100.00
2023-04-13T02:26:20.154Z,100.00
2023-04-13T02:28:47.297Z,100.00
2023-04-13T02:31:17.553Z,100.00
2023-04-13T02:33:44.771Z,100.00
2023-04-13T02:36:12.179Z,100.00
2023-04-13T02:38:39.083Z,95.84
2023-04-13T02:41:06.601Z,93.13
2023-04-13T02:43:34.291Z,95.36
2023-04-13T02:46:01.268Z,97.81
2023-04-13T02:48:28.295Z,98.56
2023-04-13T02:50:55.578Z,97.47
2023-04-13T02:53:24.258Z,97.30
2023-04-13T02:55:51.778Z,100.00
2023-04-13T02:58:21.296Z,100.00
2023-04-13T03:00:48.765Z,100.00
2023-04-13T03:03:17.087Z,100.00
2023-04-13T03:05:44.052Z,100.00
2023-04-13T03:08:10.862Z,100.00
2023-04-13T03:10:37.853Z,93.80
2023-04-13T03:13:04.661Z,91.71
2023-04-13T03:15:32.143Z,92.90
2023-04-13T03:18:00.160Z,93.47
2023-04-13T03:20:29.084Z,92.50
2023-04-13T03:22:58.442Z,92.02
2023-04-13T03:25:25.261Z,91.52
2023-04-13T03:27:52.130Z,91.73
2023-04-13T03:30:19.050Z,90.43
2023-04-13T03:32:46.212Z,83.40
2023-04-13T03:35:13.127Z,86.15
2023-04-13T03:37:44.712Z,86.06
2023-04-13T03:40:11.815Z,87.17
2023-04-13T03:42:38.878Z,85.45
2023-04-13T03:45:06.638Z,84.83
2023-04-13T03:47:33.816Z,83.23
2023-04-13T03:50:00.741Z,85.03
2023-04-13T03:52:27.730Z,85.22
2023-04-13T03:54:54.729Z,84.29
2023-04-13T03:57:22.812Z,86.28
2023-04-13T03:59:49.667Z,85.77
2023-04-13T04:02:16.672Z,86.03
2023-04-13T04:04:43.639Z,84.40
2023-04-13T04:07:11.095Z,82.45
2023-04-13T04:09:37.926Z,80.05
2023-04-13T04:12:05.044Z,79.14
2023-04-13T04:14:31.957Z,78.20
2023-04-13T04:16:58.773Z,79.52
2023-04-13T04:19:25.620Z,78.32
2023-04-13T04:21:53.048Z,78.19
2023-04-13T04:24:23.282Z,77.26
2023-04-13T04:26:50.640Z,78.27
2023-04-13T04:29:21.931Z,80.11
2023-04-13T04:31:53.483Z,79.63
2023-04-13T04:34:20.830Z,78.50
2023-04-13T04:36:51.811Z,79.82
2023-04-13T04:39:22.481Z,81.20
2023-04-13T04:41:54.132Z,76.35
2023-04-13T04:44:25.208Z,75.58
2023-04-13T04:46:52.972Z,77.38
2023-04-13T04:49:21.762Z,78.53
2023-04-13T04:51:49.743Z,77.74
2023-04-13T04:54:17.316Z,77.93
2023-04-13T04:56:45.621Z,77.43
2023-04-13T04:59:12.870Z,76.28
2023-04-13T05:01:40.635Z,76.06
2023-04-13T05:04:08.082Z,77.16
2023-04-13T05:06:34.949Z,77.11
2023-04-13T05:09:06.861Z,77.07
2023-04-13T05:11:34.044Z,78.65
2023-04-13T05:14:01.364Z,76.81
2023-04-13T05:16:30.684Z,76.97
2023-04-13T05:18:58.087Z,77.01
2023-04-13T05:21:26.611Z,74.55
2023-04-13T05:23:53.540Z,76.80
2023-04-13T05:26:20.451Z,78.41
2023-04-13T05:28:47.266Z,78.96
2023-04-13T05:31:14.265Z,79.20
2023-04-13T05:33:41.221Z,77.72
2023-04-13T05:36:08.471Z,75.97
2023-04-13T05:38:35.282Z,76.31
2023-04-13T05:41:03.257Z,77.63
2023-04-13T05:43:30.548Z,73.23
2023-04-13T05:45:57.357Z,72.45
2023-04-13T05:48:24.536Z,73.17
2023-04-13T05:50:51.438Z,74.03
2023-04-13T05:53:18.386Z,74.88
2023-04-13T05:55:47.971Z,76.23
2023-04-13T05:58:15.202Z,76.17
2023-04-13T06:00:43.096Z,75.98
2023-04-13T06:03:11.011Z,74.77
2023-04-13T06:05:38.921Z,75.46
2023-04-13T06:08:05.756Z,76.04
2023-04-13T06:10:32.731Z,74.18
2023-04-13T06:12:59.880Z,75.24
2023-04-13T06:15:26.721Z,76.21
2023-04-13T06:17:53.824Z,76.44
2023-04-13T06:20:21.616Z,75.43
2023-04-13T06:22:49.115Z,75.29
2023-04-13T06:25:16.474Z,75.83
2023-04-13T06:27:44.270Z,76.56
2023-04-13T06:30:12.212Z,75.16
2023-04-13T06:32:39.328Z,75.59
2023-04-13T06:35:06.767Z,76.33
2023-04-13T06:37:35.705Z,73.97
2023-04-13T06:40:10.840Z,74.26
2023-04-13T06:42:43.859Z,71.84
2023-04-13T06:45:12.364Z,71.60
2023-04-13T06:47:42.751Z,73.07
2023-04-13T06:50:13.842Z,72.17
2023-04-13T06:52:44.601Z,71.96
2023-04-13T06:55:11.820Z,72.42
2023-04-13T06:57:38.675Z,71.89
2023-04-13T07:00:15.474Z,71.90
2023-04-13T07:02:53.332Z,73.09
2023-04-13T07:05:20.250Z,73.55
2023-04-13T07:07:47.127Z,72.21
2023-04-13T07:10:13.974Z,72.64
2023-04-13T07:12:40.922Z,74.37
2023-04-13T07:15:09.245Z,73.84
2023-04-13T07:17:36.901Z,73.24
2023-04-13T07:20:05.664Z,73.40
2023-04-13T07:22:33.593Z,73.10
2023-04-13T07:25:00.422Z,72.50
2023-04-13T07:27:27.820Z,73.81
2023-04-13T07:29:55.594Z,74.16
2023-04-13T07:32:28.086Z,74.88
2023-04-13T07:35:01.759Z,74.99
2023-04-13T07:37:29.681Z,73.80
2023-04-13T07:39:56.578Z,74.26
2023-04-13T07:42:23.407Z,74.97
2023-04-13T07:44:50.242Z,73.41
2023-04-13T07:47:17.089Z,74.20
2023-04-13T07:49:43.874Z,73.15
2023-04-13T07:52:10.703Z,73.59
2023-04-13T07:54:37.561Z,75.28
2023-04-13T07:57:05.240Z,74.54
2023-04-13T07:59:32.122Z,73.59
2023-04-13T08:01:59.485Z,74.01
2023-04-13T08:04:26.555Z,75.12
2023-04-13T08:06:54.044Z,74.87
2023-04-13T08:09:21.264Z,75.19
2023-04-13T08:11:49.560Z,75.89
2023-04-13T08:14:16.658Z,75.71
2023-04-13T08:16:43.618Z,75.90
2023-04-13T08:19:11.057Z,77.57
2023-04-13T08:21:41.621Z,77.02
2023-04-13T08:24:09.675Z,78.19
2023-04-13T08:26:36.605Z,75.95
2023-04-13T08:29:03.424Z,77.50
2023-04-13T08:31:30.561Z,77.86
2023-04-13T08:33:57.786Z,77.59
2023-04-13T08:36:24.674Z,74.59
2023-04-13T08:38:51.511Z,73.28
2023-04-13T08:41:20.155Z,73.34
2023-04-13T08:43:47.275Z,71.10
2023-04-13T08:46:21.416Z,71.01
2023-04-13T08:48:54.082Z,70.63
2023-04-13T08:51:22.828Z,68.79
2023-04-13T08:53:53.635Z,72.66
2023-04-13T08:56:24.128Z,73.41
2023-04-13T08:59:04.849Z,70.55
2023-04-13T09:01:34.250Z,70.06
2023-04-13T09:04:12.359Z,71.83
2023-04-13T09:06:42.684Z,70.83
2023-04-13T09:09:11.432Z,73.19
2023-04-13T09:11:39.196Z,77.98
2023-04-13T09:14:06.056Z,78.04
2023-04-13T09:16:41.238Z,77.66
2023-04-13T09:19:08.611Z,75.48
2023-04-13T09:21:44.800Z,75.86
2023-04-13T09:24:12.789Z,75.83
2023-04-13T09:26:44.980Z,73.97
2023-04-13T09:29:19.222Z,72.54
2023-04-13T09:31:47.558Z,73.50
2023-04-13T09:34:25.404Z,79.29
2023-04-13T09:36:54.502Z,83.55
2023-04-13T09:39:29.189Z,85.08
2023-04-13T09:41:56.670Z,83.84
2023-04-13T09:44:24.869Z,85.96
2023-04-13T09:47:03.216Z,85.03
2023-04-13T09:49:43.681Z,82.76
2023-04-13T09:52:22.952Z,83.57
2023-04-13T09:54:55.616Z,85.25
2023-04-13T09:57:32.379Z,84.60
2023-04-13T10:00:01.819Z,82.46
2023-04-13T10:02:29.288Z,78.54
2023-04-13T10:04:56.822Z,75.59
2023-04-13T10:07:26.866Z,75.99
2023-04-13T10:09:54.526Z,72.50
2023-04-13T10:12:22.378Z,73.45
2023-04-13T10:14:50.610Z,71.41
2023-04-13T10:17:49.397Z,69.78
2023-04-13T10:20:17.766Z,72.04
2023-04-13T10:22:47.271Z,71.57
2023-04-13T10:25:25.582Z,72.44
2023-04-13T10:28:00.173Z,70.42
2023-04-13T10:30:28.021Z,70.99
2023-04-13T10:33:09.785Z,70.35
2023-04-13T10:35:37.586Z,74.77
2023-04-13T10:38:05.135Z,76.42
2023-04-13T10:40:46.116Z,78.20
2023-04-13T10:43:13.122Z,80.40
2023-04-13T10:45:39.953Z,80.62
2023-04-13T10:48:07.509Z,78.88
2023-04-13T10:50:34.647Z,78.08
2023-04-13T10:53:01.774Z,78.29
2023-04-13T10:55:29.443Z,79.58
2023-04-13T10:57:58.343Z,78.83
2023-04-13T11:00:42.418Z,76.45
2023-04-13T11:03:17.209Z,69.50
2023-04-13T11:05:47.128Z,71.51
2023-04-13T11:08:19.297Z,68.90
2023-04-13T11:10:54.815Z,67.85
2023-04-13T11:13:22.211Z,67.34
2023-04-13T11:15:49.950Z,67.09
2023-04-13T11:18:28.718Z,66.39
2023-04-13T11:20:56.255Z,67.42
2023-04-13T11:23:26.134Z,66.36
2023-04-13T11:26:01.882Z,68.18
2023-04-13T11:28:43.838Z,69.74
2023-04-13T11:31:11.902Z,67.15
2023-04-13T11:33:40.558Z,65.44
2023-04-13T11:36:09.608Z,67.01
2023-04-13T11:38:40.841Z,67.63
2023-04-13T11:41:16.414Z,69.48
2023-04-13T11:43:48.479Z,70.17
2023-04-13T11:46:23.151Z,70.17
2023-04-13T11:48:50.471Z,68.27
2023-04-13T11:51:17.380Z,68.56
2023-04-13T11:53:45.471Z,66.53
2023-04-13T11:56:13.297Z,67.41
2023-04-13T11:58:40.525Z,68.75
2023-04-13T12:01:14.219Z,75.84
2023-04-13T12:03:59.231Z,85.86
2023-04-13T12:06:34.051Z,91.49
2023-04-13T12:09:10.780Z,94.26
2023-04-13T12:11:44.749Z,98.19
2023-04-13T12:19:26.690Z,100.00
2023-04-13T12:21:58.057Z,100.00
2023-04-13T12:24:37.882Z,100.00
2023-04-13T12:29:41.858Z,100.00
2023-04-13T12:32:17.021Z,100.00
2023-04-13T12:34:44.867Z,100.00
2023-04-13T12:37:12.113Z,100.00
2023-04-13T12:39:39.068Z,100.00
2023-04-13T12:42:06.152Z,100.00
2023-04-13T12:44:34.410Z,100.00
2023-04-13T12:47:02.275Z,100.00
2023-04-13T12:49:29.913Z,100.00
2023-04-13T12:51:56.852Z,100.00
2023-04-13T12:54:23.669Z,98.63
2023-04-13T12:56:50.484Z,98.24
2023-04-13T12:59:17.749Z,98.21
2023-04-13T13:01:44.728Z,98.39
2023-04-13T13:04:11.620Z,93.72
2023-04-13T13:06:38.506Z,94.00
2023-04-13T13:09:05.840Z,93.37
2023-04-13T13:11:32.734Z,94.62
2023-04-13T13:13:59.588Z,98.42
2023-04-13T13:16:26.803Z,98.85
2023-04-13T13:18:53.710Z,98.66
2023-04-13T13:21:21.185Z,99.22
2023-04-13T13:23:48.080Z,99.14
2023-04-13T13:28:45.078Z,98.67
2023-04-13T13:31:12.738Z,99.03
2023-04-13T13:33:39.581Z,98.77
2023-04-13T13:36:07.610Z,98.30
2023-04-13T13:38:36.409Z,98.26
2023-04-13T13:41:03.602Z,97.97
2023-04-13T13:43:30.809Z,97.78
2023-04-13T13:45:57.865Z,97.71
2023-04-13T13:48:24.943Z,98.99
2023-04-13T13:50:51.829Z,98.59
2023-04-13T13:53:18.665Z,99.73
2023-04-13T13:55:45.599Z,100.00
2023-04-13T13:58:12.421Z,100.00
2023-04-13T14:00:39.664Z,100.00
2023-04-13T14:03:06.681Z,100.00
2023-04-13T14:05:33.682Z,100.00
2023-04-13T14:08:00.857Z,100.00
2023-04-13T14:10:27.673Z,98.96
2023-04-13T14:12:55.940Z,88.47
2023-04-13T14:15:23.063Z,91.85
2023-04-13T14:18:06.000Z,96.70
2023-04-13T14:20:38.545Z,100.00
2023-04-13T14:23:05.768Z,100.00
2023-04-13T14:25:32.631Z,100.00
2023-04-13T14:27:59.443Z,100.00
2023-04-13T14:30:27.960Z,100.00
2023-04-13T14:32:56.169Z,100.00
2023-04-13T14:35:23.249Z,100.00
2023-04-13T14:37:50.129Z,100.00
2023-04-13T14:40:21.609Z,100.00
2023-04-13T14:42:50.782Z,100.00
2023-04-13T14:45:17.819Z,100.00
2023-04-13T14:47:44.874Z,100.00
2023-04-13T14:50:12.592Z,100.00
2023-04-13T14:52:39.740Z,100.00
2023-04-13T14:55:07.034Z,100.00
2023-04-13T14:57:33.854Z,100.00
2023-04-13T15:00:00.855Z,100.00
2023-04-13T15:02:28.855Z,100.00
2023-04-13T15:04:56.218Z,100.00
2023-04-13T15:07:29.957Z,100.00
2023-04-13T15:09:58.709Z,100.00
2023-04-13T15:12:25.673Z,100.00
2023-04-13T15:14:52.532Z,100.00
2023-04-13T15:17:19.381Z,100.00
2023-04-13T15:19:46.212Z,100.00
2023-04-13T15:22:13.159Z,100.00
2023-04-13T15:24:39.958Z,100.00
2023-04-13T15:27:06.879Z,100.00
2023-04-13T15:29:33.717Z,100.00
2023-04-13T15:32:00.695Z,100.00
2023-04-13T15:34:28.108Z,100.00
2023-04-13T15:36:56.983Z,100.00
2023-04-13T15:39:23.835Z,100.00
2023-04-13T15:41:52.556Z,100.00
2023-04-13T15:44:19.382Z,100.00
2023-04-13T15:46:48.052Z,100.00
2023-04-13T15:49:15.004Z,100.00
2023-04-13T15:51:41.926Z,100.00
2023-04-13T15:54:08.758Z,100.00
2023-04-13T15:56:35.704Z,100.00
2023-04-13T15:59:02.782Z,100.00
2023-04-13T16:01:45.540Z,100.00
2023-04-13T16:04:12.737Z,100.00
2023-04-13T16:06:39.825Z,100.00
2023-04-13T16:09:09.681Z,100.00
2023-04-13T16:11:39.954Z,100.00
2023-04-13T16:14:07.203Z,100.00
2023-04-13T16:16:46.777Z,100.00
2023-04-13T16:19:17.998Z,100.00
2023-04-13T16:21:46.071Z,100.00
2023-04-13T16:24:13.338Z,100.00
2023-04-13T16:26:40.299Z,100.00
2023-04-13T16:29:08.144Z,100.00
2023-04-13T16:31:35.069Z,100.00
2023-04-13T16:34:06.852Z,100.00
2023-04-13T16:36:38.711Z,100.00
2023-04-13T16:39:11.964Z,100.00
2023-04-13T16:41:39.940Z,100.00
2023-04-13T16:44:06.817Z,100.00
2023-04-13T16:46:33.755Z,100.00
2023-04-13T16:49:00.727Z,100.00
2023-04-13T16:51:27.841Z,100.00
2023-04-13T16:53:54.649Z,100.00
2023-04-13T16:56:22.303Z,100.00
2023-04-13T16:58:50.065Z,100.00
2023-04-13T17:01:16.988Z,100.00
2023-04-13T17:03:43.906Z,100.00
2023-04-13T17:06:10.924Z,100.00
2023-04-13T17:08:37.774Z,100.00
2023-04-13T17:11:07.123Z,100.00
2023-04-13T17:13:36.154Z,100.00
2023-04-13T17:16:04.016Z,100.00
2023-04-13T17:18:30.944Z,100.00
2023-04-13T17:20:57.818Z,100.00
2023-04-13T17:23:24.614Z,100.00
2023-04-13T17:25:56.271Z,100.00
2023-04-13T17:28:24.048Z,100.00
2023-04-13T17:30:50.996Z,100.00
2023-04-13T17:33:17.908Z,100.00
2023-04-13T17:35:44.718Z,100.00
2023-04-13T17:38:11.522Z,100.00
2023-04-13T17:40:38.332Z,100.00
2023-04-13T17:43:07.452Z,100.00
2023-04-13T17:45:34.301Z,100.00
2023-04-13T17:48:01.452Z,100.00
2023-04-13T17:50:28.420Z,100.00
2023-04-13T17:52:55.471Z,100.00
2023-04-13T17:55:22.283Z,100.00
2023-04-13T17:57:49.184Z,100.00
2023-04-13T18:00:16.402Z,100.00
2023-04-13T18:02:43.390Z,100.00
2023-04-13T18:05:15.284Z,100.00
2023-04-13T18:07:43.200Z,100.00
2023-04-13T18:10:10.793Z,100.00
2023-04-13T18:12:41.241Z,100.00
2023-04-13T18:15:09.071Z,100.00
2023-04-13T18:17:37.520Z,100.00
2023-04-13T18:20:05.661Z,100.00
2023-04-13T18:22:33.100Z,100.00
2023-04-13T18:24:59.982Z,100.00
2023-04-13T18:27:27.594Z,100.00
2023-04-13T18:29:55.657Z,100.00
2023-04-13T18:32:23.381Z,100.00
2023-04-13T18:34:50.317Z,100.00
2023-04-13T18:37:17.285Z,100.00
2023-04-13T18:39:44.895Z,100.00
2023-04-13T18:42:11.948Z,100.00
2023-04-13T18:44:38.772Z,100.00
2023-04-13T18:47:05.725Z,100.00
2023-04-13T18:49:32.583Z,100.00
2023-04-13T18:51:59.528Z,100.00
2023-04-13T18:54:26.433Z,100.00
2023-04-13T18:56:53.310Z,100.00
2023-04-13T18:59:20.180Z,100.00
2023-04-13T19:01:47.794Z,100.00
2023-04-13T19:04:15.038Z,100.00
2023-04-13T19:06:41.936Z,100.00
2023-04-13T19:09:08.747Z,100.00
2023-04-13T19:11:51.490Z,100.00
2023-04-13T19:14:18.342Z,100.00
2023-04-13T19:16:47.629Z,100.00
2023-04-13T19:19:15.620Z,100.00
2023-04-13T19:21:42.697Z,100.00
2023-04-13T19:24:13.036Z,100.00
2023-04-13T19:26:41.030Z,100.00
2023-04-13T19:29:12.535Z,100.00
2023-04-13T19:31:43.231Z,100.00
2023-04-13T19:34:11.341Z,100.00
2023-04-13T19:36:40.302Z,100.00
2023-04-13T19:39:08.098Z,100.00
2023-04-13T19:41:38.393Z,100.00
2023-04-13T19:44:05.854Z,100.00
2023-04-13T19:46:32.839Z,100.00
2023-04-13T19:49:01.982Z,100.00
2023-04-13T19:51:30.991Z,100.00
2023-04-13T19:53:59.578Z,100.00
2023-04-13T19:56:27.314Z,100.00
2023-04-13T19:58:54.107Z,100.00
2023-04-13T20:01:22.039Z,100.00
2023-04-13T20:03:49.012Z,100.00
2023-04-13T20:06:16.088Z,100.00
2023-04-13T20:08:46.602Z,100.00
2023-04-13T20:11:13.613Z,100.00
2023-04-13T20:13:41.293Z,100.00
2023-04-13T20:16:08.271Z,100.00
2023-04-13T20:18:35.217Z,100.00
2023-04-13T20:21:02.079Z,100.00
2023-04-13T20:23:31.242Z,100.00
2023-04-13T20:25:58.296Z,100.00
2023-04-13T20:28:25.334Z,100.00
2023-04-13T20:30:52.682Z,100.00
2023-04-13T20:33:19.499Z,100.00
2023-04-13T20:35:46.330Z,100.00
2023-04-13T20:38:13.874Z,100.00
2023-04-13T20:40:41.737Z,100.00
2023-04-13T20:43:10.809Z,100.00
2023-04-13T20:45:38.228Z,100.00
2023-04-13T20:50:36.412Z,100.00
2023-04-13T20:53:04.817Z,100.00
2023-04-13T20:55:31.840Z,100.00
2023-04-13T20:57:58.666Z,100.00
2023-04-13T21:00:27.339Z,100.00
2023-04-13T21:02:55.084Z,100.00
2023-04-13T21:05:22.232Z,100.00
2023-04-13T21:07:50.410Z,100.00
2023-04-13T21:10:17.734Z,100.00
2023-04-13T21:12:44.937Z,100.00
2023-04-13T21:15:11.870Z,100.00
2023-04-13T21:17:38.958Z,100.00
2023-04-13T21:20:08.874Z,100.00
2023-04-13T21:22:36.642Z,100.00
2023-04-13T21:25:05.312Z,100.00
2023-04-13T21:27:32.413Z,100.00
2023-04-13T21:30:00.867Z,100.00
2023-04-13T21:32:27.750Z,100.00
2023-04-13T21:34:55.734Z,100.00
2023-04-13T21:37:22.545Z,100.00
2023-04-13T21:39:49.363Z,100.00
2023-04-13T21:42:16.948Z,100.00
2023-04-13T21:44:43.769Z,100.00
2023-04-13T21:47:10.599Z,100.00
2023-04-13T21:49:37.416Z,100.00
2023-04-13T21:52:04.363Z,100.00
2023-04-13T21:54:31.197Z,100.00
2023-04-13T21:56:58.031Z,100.00
2023-04-13T21:59:27.259Z,100.00
2023-04-13T22:01:54.960Z,100.00
2023-04-13T22:04:22.411Z,100.00
2023-04-13T22:06:49.504Z,100.00
2023-04-13T22:09:16.492Z,100.00
2023-04-13T22:11:43.367Z,100.00
2023-04-13T22:14:10.267Z,100.00
2023-04-13T22:16:37.097Z,100.00
2023-04-13T22:19:03.937Z,100.00
2023-04-13T22:21:31.397Z,100.00
2023-04-13T22:23:58.230Z,100.00
2023-04-13T22:26:25.726Z,100.00
2023-04-13T22:28:52.532Z,100.00
2023-04-13T22:31:20.159Z,100.00
2023-04-13T22:33:47.066Z,100.00
2023-04-13T22:36:21.281Z,100.00
2023-04-13T22:38:49.038Z,100.00
2023-04-13T22:41:16.110Z,100.00
2023-04-13T22:43:42.977Z,100.00
2023-04-13T22:46:09.887Z,100.00
2023-04-13T22:48:36.736Z,100.00
2023-04-13T22:51:03.719Z,100.00
2023-04-13T22:53:31.346Z,100.00
2023-04-13T22:55:59.242Z,100.00
2023-04-13T22:58:26.324Z,100.00
2023-04-13T23:00:53.168Z,100.00
2023-04-13T23:03:20.165Z,100.00
2023-04-13T23:05:47.123Z,100.00
2023-04-13T23:08:14.084Z,100.00
2023-04-13T23:10:41.131Z,100.00
2023-04-13T23:13:08.053Z,100.00
2023-04-13T23:15:34.888Z,100.00
2023-04-13T23:18:02.703Z,100.00
2023-04-13T23:20:29.811Z,100.00
2023-04-13T23:22:56.674Z,100.00
2023-04-13T23:25:23.733Z,100.00
2023-04-13T23:27:50.799Z,100.00
2023-04-13T23:30:17.657Z,100.00
2023-04-13T23:32:44.551Z,100.00
2023-04-13T23:35:11.444Z,100.00
2023-04-13T23:37:40.299Z,100.00
2023-04-13T23:40:08.126Z,100.00
2023-04-13T23:42:35.636Z,100.00
2023-04-13T23:45:02.554Z,100.00
2023-04-13T23:47:29.473Z,100.00
2023-04-13T23:49:56.363Z,100.00
2023-04-13T23:52:23.201Z,100.00
2023-04-13T23:54:50.024Z,100.00
2023-04-13T23:57:16.839Z,100.00
2023-04-13T23:59:43.631Z,100.00
